De Soto, Georgia
Current Conditions -  °F | °C
As of 6:55 PM on Monday 22 Dec 2014 (Local Time) from KACJ Reporting Station
Light Rain Light Rain  
Wind Chill: 10°   Ceiling: 300
Heat Index: 10°   Visibility: 0.5mi
Dew Point: 10°   Wind: 5mph
Humidity: 100%   Direction: 90°E
Pressure: 29.92"   Gusts: NA
Location:  31.95°N, 84.06°W
Report Text: KACJ 222355Z AUTO 09004KT 1/2SM -RA OVC003 10/10 A2992 RMK AO2
Loading
Personal Weather Stations






























Interactive Weather Map New forecast layout! Learn more

10-Day Weather Forecast

Advertisements
Track Severe Weather on mobile